createdAt,value
2023-02-08T00:01:24.987Z,93.80
2023-02-08T00:03:53.771Z,93.50
2023-02-08T00:06:22.299Z,93.40
2023-02-08T00:08:52.098Z,92.10
2023-02-08T00:11:20.466Z,91.70
2023-02-08T00:13:48.813Z,91.10
2023-02-08T00:16:18.539Z,91.00
2023-02-08T00:18:47.008Z,92.30
2023-02-08T00:21:19.979Z,93.20
2023-02-08T00:23:49.628Z,94.70
2023-02-08T00:26:20.302Z,95.20
2023-02-08T00:28:48.985Z,95.10
2023-02-08T00:31:19.440Z,93.50
2023-02-08T00:33:47.954Z,92.20
2023-02-08T00:36:16.328Z,91.80
2023-02-08T00:38:44.816Z,91.70
2023-02-08T00:41:13.315Z,91.10
2023-02-08T00:43:43.080Z,91.10
2023-02-08T00:46:11.631Z,90.10
2023-02-08T00:48:40.015Z,91.10
2023-02-08T00:51:11.957Z,90.60
2023-02-08T00:53:41.696Z,90.10
2023-02-08T00:56:11.528Z,90.80
2023-02-08T00:58:40.319Z,93.20
2023-02-08T01:01:11.124Z,93.90
2023-02-08T01:03:42.104Z,94.00
2023-02-08T01:06:12.503Z,93.90
2023-02-08T01:08:41.133Z,93.60
2023-02-08T01:11:11.424Z,93.50
2023-02-08T01:13:40.228Z,93.80
2023-02-08T01:16:14.062Z,93.80
2023-02-08T01:18:44.581Z,94.20
2023-02-08T01:21:14.833Z,94.20
2023-02-08T01:23:44.299Z,93.80
2023-02-08T01:26:13.504Z,93.00
2023-02-08T01:28:42.864Z,91.90
2023-02-08T01:31:14.968Z,90.80
2023-02-08T01:33:43.572Z,90.60
2023-02-08T01:36:12.762Z,92.40
2023-02-08T01:38:44.209Z,94.60
2023-02-08T01:41:16.672Z,95.30
2023-02-08T01:44:04.810Z,96.10
2023-02-08T01:46:36.357Z,95.40
2023-02-08T01:49:12.114Z,94.00
2023-02-08T01:51:44.030Z,93.80
2023-02-08T01:54:15.208Z,93.40
2023-02-08T01:56:46.804Z,92.70
2023-02-08T01:59:21.904Z,93.10
2023-02-08T02:01:54.853Z,92.90
2023-02-08T02:04:23.925Z,93.50
2023-02-08T02:06:56.117Z,94.40
2023-02-08T02:09:34.746Z,95.80
2023-02-08T02:12:03.583Z,95.80
2023-02-08T02:14:32.340Z,95.30
2023-02-08T02:17:02.706Z,94.40
2023-02-08T02:19:38.740Z,93.50
2023-02-08T02:22:25.270Z,91.10
2023-02-08T02:25:24.182Z,84.40
2023-02-08T02:28:15.400Z,78.50
2023-02-08T02:31:13.117Z,74.60
2023-02-08T02:33:58.870Z,73.50
2023-02-08T02:36:34.568Z,73.10
2023-02-08T02:39:17.589Z,73.20
2023-02-08T02:42:12.581Z,74.90
2023-02-08T02:44:51.929Z,76.40
2023-02-08T02:47:28.797Z,74.50
2023-02-08T02:50:05.168Z,74.70
2023-02-08T02:52:38.466Z,75.40
2023-02-08T02:55:11.138Z,72.60
2023-02-08T02:57:40.792Z,73.40
2023-02-08T03:00:11.432Z,74.80
2023-02-08T03:02:39.902Z,72.50
2023-02-08T03:05:13.515Z,72.70
2023-02-08T03:07:57.539Z,70.90
2023-02-08T03:10:42.659Z,70.60
2023-02-08T03:13:19.360Z,72.70
2023-02-08T03:15:56.490Z,68.90
2023-02-08T03:18:36.396Z,70.80
2023-02-08T03:21:13.099Z,71.80
2023-02-08T03:23:47.603Z,75.30
2023-02-08T03:26:21.592Z,77.70
2023-02-08T03:28:56.839Z,77.50
2023-02-08T03:31:31.779Z,76.80
2023-02-08T03:34:07.079Z,75.80
2023-02-08T03:36:43.833Z,76.00
2023-02-08T03:39:17.245Z,76.40
2023-02-08T03:41:52.825Z,76.70
2023-02-08T03:44:26.572Z,75.30
2023-02-08T03:46:58.969Z,76.20
2023-02-08T03:49:32.180Z,75.90
2023-02-08T03:52:04.832Z,74.80
2023-02-08T03:54:39.629Z,73.00
2023-02-08T03:57:14.111Z,75.30
2023-02-08T03:59:45.268Z,72.10
2023-02-08T04:02:18.133Z,75.90
2023-02-08T04:04:49.104Z,79.70
2023-02-08T04:07:20.092Z,81.20
2023-02-08T04:09:48.517Z,76.10
2023-02-08T04:12:16.835Z,77.70
2023-02-08T04:14:45.175Z,79.80
2023-02-08T04:17:13.532Z,79.50
2023-02-08T04:19:42.081Z,78.60
2023-02-08T04:22:10.383Z,78.40
2023-02-08T04:24:41.087Z,76.80
2023-02-08T04:27:09.474Z,75.70
2023-02-08T04:29:37.811Z,75.10
2023-02-08T04:32:11.571Z,74.50
2023-02-08T04:34:40.386Z,74.40
2023-02-08T04:37:09.772Z,71.10
2023-02-08T04:39:39.889Z,73.90
2023-02-08T04:42:08.265Z,75.20
2023-02-08T04:44:36.613Z,74.20
2023-02-08T04:47:05.196Z,74.10
2023-02-08T04:49:33.601Z,75.10
2023-02-08T04:52:01.967Z,75.00
2023-02-08T04:54:31.224Z,76.70
2023-02-08T04:57:00.930Z,77.50
2023-02-08T04:59:29.442Z,77.80
2023-02-08T05:01:57.829Z,77.80
2023-02-08T05:04:26.159Z,77.80
2023-02-08T05:06:54.485Z,79.70
2023-02-08T05:09:23.504Z,79.30
2023-02-08T05:11:51.933Z,79.00
2023-02-08T05:14:21.696Z,80.60
2023-02-08T05:16:50.062Z,80.80
2023-02-08T05:19:18.437Z,80.70
2023-02-08T05:21:46.722Z,81.30
2023-02-08T05:24:15.052Z,82.40
2023-02-08T05:26:43.385Z,81.40
2023-02-08T05:29:11.898Z,82.10
2023-02-08T05:31:41.645Z,81.70
2023-02-08T05:34:10.026Z,81.30
2023-02-08T05:36:38.347Z,80.10
2023-02-08T05:39:06.720Z,81.50
2023-02-08T05:41:35.131Z,81.90
2023-02-08T05:44:03.466Z,81.60
2023-02-08T05:46:31.984Z,82.10
2023-02-08T05:49:01.730Z,84.00
2023-02-08T05:51:30.027Z,84.00
2023-02-08T05:53:58.367Z,83.90
2023-02-08T05:56:27.620Z,83.60
2023-02-08T05:58:56.278Z,84.30
2023-02-08T06:01:24.654Z,81.00
2023-02-08T06:03:53.084Z,78.40
2023-02-08T06:06:22.900Z,78.50
2023-02-08T06:08:51.244Z,71.80
2023-02-08T06:11:20.116Z,64.70
2023-02-08T06:13:49.070Z,65.00
2023-02-08T06:16:19.969Z,65.80
2023-02-08T06:18:48.543Z,65.90
2023-02-08T06:21:16.924Z,62.00
2023-02-08T06:23:46.904Z,60.00
2023-02-08T06:26:15.264Z,60.20
2023-02-08T06:28:43.673Z,60.70
2023-02-08T06:31:12.070Z,59.70
2023-02-08T06:33:40.553Z,61.00
2023-02-08T06:36:09.430Z,60.50
2023-02-08T06:38:37.784Z,60.10
2023-02-08T06:41:07.544Z,60.20
2023-02-08T06:43:35.931Z,58.90
2023-02-08T06:46:05.084Z,59.00
2023-02-08T06:48:35.200Z,58.30
2023-02-08T06:51:03.661Z,58.20
2023-02-08T06:53:32.020Z,57.80
2023-02-08T06:56:00.381Z,57.30
2023-02-08T06:58:31.362Z,57.40
2023-02-08T07:00:59.774Z,57.70
2023-02-08T07:03:28.226Z,57.00
2023-02-08T07:06:05.050Z,57.10
2023-02-08T07:08:34.545Z,57.70
2023-02-08T07:11:08.206Z,58.50
2023-02-08T07:13:38.831Z,64.20
2023-02-08T07:16:08.446Z,67.50
2023-02-08T07:18:38.106Z,69.80
2023-02-08T07:21:07.365Z,70.30
2023-02-08T07:23:37.499Z,71.10
2023-02-08T07:26:07.920Z,71.40
2023-02-08T07:28:40.325Z,71.60
2023-02-08T07:31:09.856Z,72.50
2023-02-08T07:33:38.659Z,72.80
2023-02-08T07:36:08.181Z,73.30
2023-02-08T07:38:37.367Z,74.10
2023-02-08T07:41:07.851Z,75.20
2023-02-08T07:43:38.920Z,75.60
2023-02-08T07:46:08.968Z,75.70
2023-02-08T07:48:40.149Z,74.80
2023-02-08T07:51:10.278Z,73.30
2023-02-08T07:53:39.224Z,71.70
2023-02-08T07:56:08.114Z,72.30
2023-02-08T07:58:37.871Z,72.10
2023-02-08T08:01:20.059Z,72.80
2023-02-08T08:03:51.712Z,72.80
2023-02-08T08:06:20.536Z,70.20
2023-02-08T08:08:49.765Z,72.00
2023-02-08T08:11:19.166Z,72.90
2023-02-08T08:13:48.953Z,73.50
2023-02-08T08:16:17.721Z,73.70
2023-02-08T08:18:46.340Z,72.40
2023-02-08T08:21:16.858Z,72.10
2023-02-08T08:23:45.427Z,73.70
2023-02-08T08:26:16.267Z,73.20
2023-02-08T08:28:46.794Z,73.90
2023-02-08T08:31:18.733Z,73.80
2023-02-08T08:33:47.587Z,73.40
2023-02-08T08:36:16.436Z,74.00
2023-02-08T08:38:44.851Z,72.90
2023-02-08T08:41:15.484Z,73.30
2023-02-08T08:43:44.109Z,71.00
2023-02-08T08:46:12.602Z,68.10
2023-02-08T08:48:42.425Z,68.90
2023-02-08T08:51:10.802Z,68.20
2023-02-08T08:53:39.203Z,66.20
2023-02-08T08:56:08.475Z,66.30
2023-02-08T08:58:36.851Z,65.10
2023-02-08T09:01:05.259Z,64.70
2023-02-08T09:03:33.735Z,66.00
2023-02-08T09:06:03.523Z,65.10
2023-02-08T09:08:31.838Z,64.40
2023-02-08T09:11:06.703Z,64.40
2023-02-08T09:13:35.499Z,65.00
2023-02-08T09:16:09.546Z,61.70
2023-02-08T09:18:38.229Z,60.80
2023-02-08T09:21:12.478Z,60.00
2023-02-08T09:23:41.014Z,60.00
2023-02-08T09:26:11.463Z,59.60
2023-02-08T09:28:40.090Z,60.30
2023-02-08T09:31:12.437Z,59.40
2023-02-08T09:33:41.143Z,57.80
2023-02-08T09:36:11.663Z,56.70
2023-02-08T09:38:40.732Z,55.50
2023-02-08T09:41:20.748Z,55.60
2023-02-08T09:44:00.704Z,55.80
2023-02-08T09:46:31.596Z,55.80
2023-02-08T09:49:03.053Z,54.70
2023-02-08T09:51:38.596Z,54.10
2023-02-08T09:54:09.921Z,53.90
2023-02-08T09:56:41.938Z,53.00
2023-02-08T09:59:16.443Z,53.50
2023-02-08T10:01:46.571Z,53.70
2023-02-08T10:04:25.265Z,53.90
2023-02-08T10:06:55.383Z,53.30
2023-02-08T10:09:27.149Z,52.60
2023-02-08T10:12:07.645Z,51.80
2023-02-08T10:14:48.003Z,51.50
2023-02-08T10:17:34.075Z,51.20
2023-02-08T10:20:14.025Z,50.20
2023-02-08T10:22:52.776Z,50.60
2023-02-08T10:25:32.565Z,50.00
2023-02-08T10:28:19.866Z,49.80
2023-02-08T10:30:57.445Z,48.80
2023-02-08T10:33:33.668Z,48.60
2023-02-08T10:36:05.200Z,48.90
2023-02-08T10:38:46.306Z,48.10
2023-02-08T10:41:24.882Z,46.80
2023-02-08T10:44:00.196Z,48.30
2023-02-08T10:46:45.535Z,50.50
2023-02-08T10:49:22.583Z,50.10
2023-02-08T10:51:51.546Z,51.40
2023-02-08T10:54:21.450Z,51.90
2023-02-08T10:56:57.791Z,51.10
2023-02-08T10:59:29.557Z,49.30
2023-02-08T11:01:59.370Z,47.50
2023-02-08T11:04:28.292Z,48.40
2023-02-08T11:09:42.902Z,53.10
2023-02-08T11:12:23.392Z,50.40
2023-02-08T11:14:56.398Z,49.30
2023-02-08T11:17:32.062Z,50.80
2023-02-08T11:20:02.777Z,49.90
2023-02-08T11:22:37.643Z,50.20
2023-02-08T11:25:14.927Z,49.70
2023-02-08T11:27:50.166Z,51.50
2023-02-08T11:30:30.845Z,51.40
2023-02-08T11:36:11.642Z,48.40
2023-02-08T11:38:45.819Z,50.40
2023-02-08T11:44:08.698Z,51.00
2023-02-08T11:46:41.776Z,50.20
2023-02-08T11:49:24.746Z,49.80
2023-02-08T11:51:54.118Z,50.70
2023-02-08T11:54:41.442Z,49.20
2023-02-08T11:57:19.293Z,49.90
2023-02-08T11:59:48.044Z,49.40
2023-02-08T12:02:35.931Z,48.90
2023-02-08T12:05:07.837Z,49.70
2023-02-08T12:07:48.058Z,48.10
2023-02-08T12:10:25.653Z,48.00
2023-02-08T12:13:12.338Z,48.90
2023-02-08T12:15:58.546Z,49.30
2023-02-08T12:18:48.222Z,48.20
2023-02-08T12:21:21.739Z,48.10
2023-02-08T12:23:54.536Z,48.60
2023-02-08T12:26:43.984Z,48.90
2023-02-08T12:29:46.858Z,46.80
2023-02-08T12:32:42.606Z,47.90
2023-02-08T12:35:54.021Z,47.30
2023-02-08T12:39:17.934Z,44.90
2023-02-08T12:42:01.461Z,47.40
2023-02-08T12:44:40.385Z,48.00
2023-02-08T12:47:21.957Z,49.90
2023-02-08T12:50:04.121Z,51.10
2023-02-08T12:52:39.068Z,51.20
2023-02-08T12:55:18.680Z,48.50
2023-02-08T12:57:53.082Z,49.20
2023-02-08T13:00:26.737Z,50.40
2023-02-08T13:03:04.465Z,48.20
2023-02-08T13:05:39.144Z,50.10
2023-02-08T13:08:18.387Z,48.30
2023-02-08T13:10:54.187Z,47.80
2023-02-08T13:13:25.971Z,48.90
2023-02-08T13:15:59.569Z,48.40
2023-02-08T13:18:32.616Z,48.60
2023-02-08T13:21:04.931Z,50.40
2023-02-08T13:23:50.578Z,47.70
2023-02-08T13:26:26.419Z,49.10
2023-02-08T13:28:58.865Z,52.00
2023-02-08T13:31:33.559Z,51.70
2023-02-08T13:34:08.454Z,51.80
2023-02-08T13:36:38.946Z,50.30
2023-02-08T13:39:09.947Z,52.30
2023-02-08T13:41:38.589Z,53.80
2023-02-08T13:44:10.333Z,52.00
2023-02-08T13:46:46.826Z,52.90
2023-02-08T13:49:43.343Z,52.50
2023-02-08T13:52:12.653Z,53.60
2023-02-08T13:54:41.146Z,53.50
2023-02-08T13:57:43.378Z,55.10
2023-02-08T14:00:24.627Z,54.70
2023-02-08T14:03:02.612Z,55.00
2023-02-08T14:05:48.242Z,54.80
2023-02-08T14:08:25.053Z,53.40
2023-02-08T14:11:08.275Z,54.50
2023-02-08T14:13:41.553Z,53.30
2023-02-08T14:16:33.943Z,54.80
2023-02-08T14:19:05.607Z,55.70
2023-02-08T14:21:39.195Z,53.30
2023-02-08T14:24:09.956Z,54.00
2023-02-08T14:26:38.562Z,51.60
2023-02-08T14:29:08.207Z,52.70
2023-02-08T14:31:39.907Z,51.50
2023-02-08T14:34:24.176Z,52.50
2023-02-08T14:37:02.258Z,51.50
2023-02-08T14:39:34.647Z,52.10
2023-02-08T14:42:08.781Z,51.70
2023-02-08T14:45:05.816Z,53.20
2023-02-08T14:48:17.576Z,53.10
2023-02-08T14:50:58.137Z,51.60
2023-02-08T14:53:35.654Z,50.90
2023-02-08T14:56:08.827Z,51.70
2023-02-08T14:58:42.553Z,51.90
2023-02-08T15:01:18.542Z,54.10
2023-02-08T15:03:49.658Z,52.60
2023-02-08T15:06:53.843Z,52.40
2023-02-08T15:09:25.096Z,52.50
2023-02-08T15:12:02.777Z,52.30
2023-02-08T15:14:34.425Z,53.70
2023-02-08T15:17:03.450Z,52.80
2023-02-08T15:19:35.338Z,54.70
2023-02-08T15:22:32.578Z,53.70
2023-02-08T15:25:02.913Z,53.30
2023-02-08T15:27:33.558Z,52.20
2023-02-08T15:30:02.475Z,54.00
2023-02-08T15:32:31.457Z,53.40
2023-02-08T15:35:02.980Z,53.10
2023-02-08T15:37:35.402Z,52.70
2023-02-08T15:40:04.755Z,53.30
2023-02-08T15:42:35.510Z,53.90
2023-02-08T15:45:04.682Z,53.30
2023-02-08T15:47:36.013Z,53.20
2023-02-08T15:50:06.452Z,54.70
2023-02-08T15:52:38.398Z,53.50
2023-02-08T15:55:09.051Z,53.50
2023-02-08T15:57:44.178Z,53.50
2023-02-08T16:00:17.535Z,54.90
2023-02-08T16:02:51.703Z,53.80
2023-02-08T16:05:24.269Z,54.30
2023-02-08T16:07:54.986Z,54.60
2023-02-08T16:10:30.178Z,54.00
2023-02-08T16:13:01.088Z,53.00
2023-02-08T16:15:39.071Z,53.60
2023-02-08T16:18:07.798Z,53.50
2023-02-08T16:20:37.305Z,53.40
2023-02-08T16:23:27.386Z,54.10
2023-02-08T16:25:56.494Z,54.70
2023-02-08T16:28:30.422Z,53.80
2023-02-08T16:31:01.055Z,54.20
2023-02-08T16:33:31.396Z,55.30
2023-02-08T16:36:02.735Z,54.90
2023-02-08T16:38:35.066Z,55.40
2023-02-08T16:41:13.167Z,55.60
2023-02-08T16:43:44.835Z,55.80
2023-02-08T16:46:24.557Z,55.70
2023-02-08T16:48:55.434Z,56.10
2023-02-08T16:51:26.537Z,54.80
2023-02-08T16:54:02.561Z,55.40
2023-02-08T16:56:31.145Z,55.60
2023-02-08T16:58:59.463Z,55.20
2023-02-08T17:01:28.659Z,56.00
2023-02-08T17:03:57.207Z,56.90
2023-02-08T17:06:30.548Z,55.20
2023-02-08T17:09:01.536Z,54.50
2023-02-08T17:11:30.502Z,55.20
2023-02-08T17:13:59.587Z,55.40
2023-02-08T17:16:31.152Z,55.20
2023-02-08T17:19:01.130Z,56.30
2023-02-08T17:21:30.379Z,58.10
2023-02-08T17:24:01.645Z,59.50
2023-02-08T17:26:33.662Z,59.70
2023-02-08T17:29:02.061Z,58.90
2023-02-08T17:31:31.117Z,56.90
2023-02-08T17:34:04.510Z,56.80
2023-02-08T17:36:34.040Z,56.70
2023-02-08T17:39:05.345Z,57.70
2023-02-08T17:41:33.913Z,57.50
2023-02-08T17:44:02.354Z,56.40
2023-02-08T17:46:31.734Z,56.40
2023-02-08T17:49:01.890Z,55.60
2023-02-08T17:51:32.121Z,54.60
2023-02-08T17:54:00.656Z,54.10
2023-02-08T17:56:31.787Z,54.30
2023-02-08T17:59:01.030Z,54.40
2023-02-08T18:01:29.510Z,54.80
2023-02-08T18:03:58.284Z,55.00
2023-02-08T18:06:27.069Z,54.40
2023-02-08T18:08:58.212Z,54.70
2023-02-08T18:11:27.437Z,55.00
2023-02-08T18:13:57.131Z,55.00
2023-02-08T18:16:28.583Z,54.80
2023-02-08T18:18:57.653Z,54.80
2023-02-08T18:21:26.695Z,54.40
2023-02-08T18:23:56.178Z,54.50
2023-02-08T18:26:26.459Z,54.00
2023-02-08T18:28:56.276Z,54.00
2023-02-08T18:31:25.473Z,54.20
2023-02-08T18:33:54.026Z,54.10
2023-02-08T18:36:24.307Z,54.10
2023-02-08T18:38:55.873Z,54.50
2023-02-08T18:41:26.774Z,54.20
2023-02-08T18:43:58.305Z,54.70
2023-02-08T18:46:28.380Z,54.10
2023-02-08T18:48:56.923Z,54.70
2023-02-08T18:51:27.743Z,54.30
2023-02-08T18:53:57.310Z,54.30
2023-02-08T18:56:28.102Z,54.60
2023-02-08T18:59:00.740Z,54.40
2023-02-08T19:01:29.310Z,54.80
2023-02-08T19:03:58.601Z,55.30
2023-02-08T19:06:29.026Z,55.10
2023-02-08T19:08:59.684Z,55.00
2023-02-08T19:11:30.034Z,55.10
2023-02-08T19:14:01.884Z,55.10
2023-02-08T19:16:31.558Z,55.10
2023-02-08T19:19:01.211Z,55.20
2023-02-08T19:21:31.150Z,55.40
2023-02-08T19:24:00.698Z,55.20
2023-02-08T19:26:32.746Z,55.40
2023-02-08T19:29:06.753Z,55.50
2023-02-08T19:31:36.023Z,55.60
2023-02-08T19:34:05.246Z,55.60
2023-02-08T19:36:36.262Z,55.50
2023-02-08T19:39:06.619Z,56.10
2023-02-08T19:41:37.581Z,57.20
2023-02-08T19:44:10.045Z,58.10
2023-02-08T19:46:39.811Z,58.20
2023-02-08T19:49:08.576Z,58.60
2023-02-08T19:51:37.251Z,59.90
2023-02-08T19:54:07.332Z,59.50
2023-02-08T19:56:36.410Z,58.60
2023-02-08T19:59:07.839Z,58.40
2023-02-08T20:01:36.530Z,58.30
2023-02-08T20:04:05.898Z,58.20
2023-02-08T20:06:36.224Z,58.10
2023-02-08T20:09:06.653Z,58.40
2023-02-08T20:11:38.673Z,58.20
2023-02-08T20:14:15.206Z,57.90
2023-02-08T20:16:43.730Z,57.50
2023-02-08T20:19:13.292Z,57.70
2023-02-08T20:21:44.480Z,57.60
2023-02-08T20:24:14.476Z,58.50
2023-02-08T20:26:44.500Z,59.60
2023-02-08T20:29:17.567Z,59.50
2023-02-08T20:31:48.656Z,57.40
2023-02-08T20:34:19.006Z,59.20
2023-02-08T20:37:06.949Z,58.20
2023-02-08T20:39:36.459Z,56.00
2023-02-08T20:42:05.146Z,56.00
2023-02-08T20:44:35.117Z,57.20
2023-02-08T20:47:03.521Z,58.80
2023-02-08T20:49:32.510Z,55.80
2023-02-08T20:52:01.383Z,54.90
2023-02-08T20:54:29.990Z,55.00
2023-02-08T20:56:59.135Z,55.80
2023-02-08T20:59:27.602Z,57.40
2023-02-08T21:01:57.702Z,56.60
2023-02-08T21:04:27.189Z,56.50
2023-02-08T21:06:55.676Z,56.30
2023-02-08T21:09:24.558Z,56.90
2023-02-08T21:11:53.749Z,58.30
2023-02-08T21:14:23.607Z,59.60
2023-02-08T21:16:53.938Z,61.20
2023-02-08T21:19:24.091Z,59.30
2023-02-08T21:21:53.867Z,61.80
2023-02-08T21:24:23.992Z,59.30
2023-02-08T21:26:52.901Z,58.20
2023-02-08T21:29:21.868Z,58.90
2023-02-08T21:31:52.576Z,59.60
2023-02-08T21:34:21.970Z,59.40
2023-02-08T21:36:51.715Z,59.00
2023-02-08T21:39:20.190Z,59.30
2023-02-08T21:41:49.324Z,61.20
2023-02-08T21:44:17.761Z,60.50
2023-02-08T21:46:46.135Z,58.90
2023-02-08T21:49:32.019Z,57.80
2023-02-08T21:52:19.323Z,58.30
2023-02-08T21:54:53.590Z,59.60
2023-02-08T21:57:24.720Z,60.80
2023-02-08T21:59:55.986Z,60.10
2023-02-08T22:02:27.922Z,59.00
2023-02-08T22:04:57.823Z,58.60
2023-02-08T22:07:28.211Z,59.80
2023-02-08T22:09:56.920Z,59.20
2023-02-08T22:12:25.405Z,59.00
2023-02-08T22:14:53.735Z,59.70
2023-02-08T22:17:22.140Z,60.10
2023-02-08T22:19:50.474Z,59.30
2023-02-08T22:22:18.830Z,59.70
2023-02-08T22:24:48.567Z,60.50
2023-02-08T22:27:17.015Z,60.20
2023-02-08T22:29:45.397Z,59.80
2023-02-08T22:32:17.054Z,60.90
2023-02-08T22:34:45.664Z,59.80
2023-02-08T22:37:14.806Z,60.30
2023-02-08T22:39:43.764Z,59.20
2023-02-08T22:42:13.640Z,59.80
2023-02-08T22:44:43.484Z,58.90
2023-02-08T22:47:13.411Z,59.10
2023-02-08T22:49:42.101Z,59.30
2023-02-08T22:52:11.021Z,58.40
2023-02-08T22:54:39.878Z,58.70
2023-02-08T22:57:09.785Z,59.20
2023-02-08T22:59:40.265Z,59.50
2023-02-08T23:02:09.487Z,59.00
2023-02-08T23:04:38.541Z,59.70
2023-02-08T23:07:07.037Z,59.80
2023-02-08T23:09:35.369Z,58.20
2023-02-08T23:12:03.703Z,59.30
2023-02-08T23:14:32.901Z,61.00
2023-02-08T23:17:02.790Z,59.40
2023-02-08T23:19:31.752Z,61.70
2023-02-08T23:22:00.615Z,63.00
2023-02-08T23:24:29.833Z,60.50
2023-02-08T23:26:58.220Z,60.10
2023-02-08T23:29:27.028Z,60.90
2023-02-08T23:31:55.476Z,60.50
2023-02-08T23:34:25.276Z,58.60
2023-02-08T23:36:53.759Z,57.20
2023-02-08T23:39:22.074Z,58.10
2023-02-08T23:41:50.431Z,56.00
2023-02-08T23:44:18.806Z,55.60
2023-02-08T23:46:47.166Z,54.90
2023-02-08T23:49:15.597Z,55.00
2023-02-08T23:51:45.345Z,55.30
2023-02-08T23:54:13.777Z,54.60
2023-02-08T23:56:42.162Z,59.70
2023-02-08T23:59:12.105Z,59.80
